| Date | Time | Temp. (oF) | Dew Point (oF) | Rel. Hum. (%) | Press. (in.) | Wind Dir. | Wind Speed (mph) | Hourly Rainfall (in.) |
|
|---|---|---|---|---|---|---|---|---|---|
| 1 | 11/24 | 00:00 | 29 | 28 | 100 | 29.41 | SE | 5 | 0.00 |
| 2 | 11/23 | 23:00 | 29 | 27 | 95 | 29.47 | SE | 2 | 0.01 |
| 3 | 11/23 | 22:00 | 31 | 26 | 83 | 29.52 | S | 4 | 0.00 |
| 4 | 11/23 | 21:00 | 32 | 20 | 63 | 29.55 | SSW | 5 | 0.00 |
| 5 | 11/23 | 20:00 | 31 | 19 | 63 | 29.55 | SSE | 1 | 0.00 |
| 6 | 11/23 | 19:00 | 31 | 17 | 58 | 29.57 | ESE | 0 | 0.00 |
| 7 | 11/23 | 18:00 | 32 | 17 | 55 | 29.59 | S | 2 | 0.00 |
| 8 | 11/23 | 17:00 | 33 | 17 | 52 | 29.60 | S | 4 | 0.00 |
| 9 | 11/23 | 16:00 | 33 | 17 | 52 | 29.59 | S | 5 | 0.00 |
| 10 | 11/23 | 15:00 | 36 | 19 | 50 | 29.60 | W | 7 | 0.00 |
| 11 | 11/23 | 14:00 | 36 | 19 | 50 | 29.61 | WNW | 6 | 0.00 |
| 12 | 11/23 | 13:00 | 33 | 16 | 50 | 29.62 | WNW | 6 | 0.00 |
| 13 | 11/23 | 12:00 | 33 | 16 | 51 | 29.65 | WNW | 6 | 0.00 |
| 14 | 11/23 | 11:00 | 32 | 18 | 56 | 29.66 | W | 12 | 0.00 |
| 15 | 11/23 | 10:00 | 31 | 19 | 63 | 29.67 | NW | 15 | 0.00 |
| 16 | 11/23 | 09:00 | 31 | 22 | 69 | 29.69 | WNW | 4 | 0.00 |
| 17 | 11/23 | 08:00 | 27 | 16 | 64 | 29.68 | SW | 2 | 0.00 |
| 18 | 11/23 | 07:00 | 26 | 15 | 63 | 29.66 | WSW | 4 | 0.00 |
| 19 | 11/23 | 06:00 | 26 | 13 | 60 | 29.65 | WNW | 6 | 0.00 |
| 20 | 11/23 | 05:00 | 26 | 13 | 59 | 29.63 | W | 17 | 0.00 |
| 21 | 11/23 | 04:00 | 27 | 14 | 60 | 29.60 | W | 10 | 0.00 |
| 22 | 11/23 | 03:00 | 28 | 16 | 61 | 29.58 | WNW | 6 | 0.00 |
| 23 | 11/23 | 02:00 | 29 | 15 | 57 | 29.57 | NW | 9 | 0.00 |
| 24 | 11/23 | 01:00 | 30 | 16 | 57 | 29.55 | WNW | 17 | 0.00 |